Aérodrome :
LOGIN :

S'inscrire | Disclaimer

   EN    FR    IT 

 










Légende :    VFR   VFR Marginal   IFR   IFR Intensif   IFR Très Intensif
Visi : 
Plafond : 
>= 8 km
>= 3000ft
5 à 8 km
1000 à 3000 ft
1500m à 5 km
500 à 1000 ft
800 à 1500m
200 à 500 ft
< 800m
< 200 ft
Symboles :   Orages  Brouillard  Fortes neiges  Fortes précipitations  Vent > 20 kt
SIGMETs :   Divers  Orages  Givrage  Turbulence  Onde Orograph.  Cendres Volcan.







- Altitude de l'aérodrome : 79 ft
- Code IATA : NSY


LICZ - Sigonella (Mil) Catania

DERNIER METAR :
  • 172255Z 23004KT 0200 FG SCT090 05/05 Q1020 RMK SCT VIS MIN 0200 WIND THR28 /////KT WIND THR10 22004KT A3012 RED

METARs EXPIRÉS :
  • 172155Z 26006KT 0800 FG FEW040 SCT080 06/06 Q1020 RMK SCT VIS MIN 0800 WIND THR28 /////KT WIND THR10 26004KT A3013 AMB
  • 172055Z 02006KT 7000 FEW040 BKN080 07/07 Q1020 RMK BKN VIS MIN 7000 WIND THR28 /////KT WIND THR10 28005KT A3013 WHT

TAF TAF LICZ
Valide du 18 à 00h jusqu'au 18 à 09h UTC


172300Z 1800/1809 23005KT 6000 SCT030
TEMPO 1800/1806 0300 FG
Pas de NOTAMs connus pour ce terrain.



MET'MAP, la Météo Aéronautique d'un coup d'oeil ! - Copyright ORBIFLY Décembre 2007 - Disclaimer

ORBIFLY MET'MAP TEAM :

Programmation & Développement : Alexandra Zaïnal
Conception & Développement : Baudouin d'Aumeries
Co-Programmation & Développement : Marc-Olivier Méhu
Soutien technique & logistique : Manuel Goepfert

Contact : metmap@orbifly.com




SOURCES & CREDITS :

   NOAA